Aviation Digital Data Service (ADDS)

Output produced by METARs form (0641 UTC 27 March 2017)
found at http://www.aviationweather.gov/adds/metars/
 
TAF SYCJ 270100Z 2706/2806 VRB02KT CAVOK 
     BECMG 2708/2710 4000 BR FEW012 SCT038 
     BECMG 2712/2714 08012KT 9999 BKN018 
     PROB30 
     TEMPO 2716/2718 8000 SHRA BKN015